Time;durP1;ratioP1;P1;durP2;ratioP2;P2;SDS_P1;SDS_P2;PMS_P1;PMS_P2;Temp;Humidity;BMP_temperature;BMP_pressure;BME280_temperature;BME280_humidity;BME280_pressure;Samples;Min_cycle;Max_cycle;Signal;HPM_P1;HPM_P2
2023/05/09 00:00:03;;;;;;;22.57;21.03;;;16.70;52.50;;;;;;5067820;28;20179;-75
2023/05/09 00:02:29;;;;;;;22.73;21.33;;;16.70;52.70;;;;;;5046319;28;20610;-72
2023/05/09 00:04:55;;;;;;;24.03;22.43;;;16.70;52.60;;;;;;5065663;28;20459;-72
2023/05/09 00:07:21;;;;;;;22.60;21.03;;;16.70;52.90;;;;;;5065829;28;20780;-72
2023/05/09 00:09:46;;;;;;;23.07;21.13;;;16.70;52.80;;;;;;5065331;28;20417;-71
2023/05/09 00:12:12;;;;;;;22.23;20.77;;;16.70;52.80;;;;;;5068373;28;20617;-71
2023/05/09 00:14:39;;;;;;;22.60;21.10;;;16.70;52.50;;;;;;5067475;28;20228;-73
2023/05/09 00:17:06;;;;;;;22.07;20.70;;;16.50;52.00;;;;;;5067766;28;20262;-71
2023/05/09 00:19:32;;;;;;;24.57;22.87;;;16.60;52.10;;;;;;5066618;28;20413;-72
2023/05/09 00:21:57;;;;;;;23.73;22.17;;;16.30;52.00;;;;;;5064996;28;20465;-73
2023/05/09 00:24:23;;;;;;;23.80;22.07;;;16.20;52.70;;;;;;5068094;28;20172;-73
2023/05/09 00:26:48;;;;;;;24.60;23.13;;;16.20;53.20;;;;;;5067195;28;20186;-71
2023/05/09 00:29:14;;;;;;;23.70;22.20;;;16.10;53.60;;;;;;5062871;28;20186;-72
2023/05/09 00:31:39;;;;;;;25.23;23.33;;;16.00;53.70;;;;;;5047079;28;20171;-72
2023/05/09 00:34:05;;;;;;;25.83;24.10;;;16.10;53.90;;;;;;5067429;28;20230;-71
2023/05/09 00:36:31;;;;;;;23.30;21.90;;;16.10;54.20;;;;;;5065831;28;20262;-75
2023/05/09 00:38:57;;;;;;;22.33;20.93;;;16.20;54.70;;;;;;5065640;28;20183;-71
2023/05/09 00:41:22;;;;;;;23.60;22.10;;;16.30;55.00;;;;;;5066192;28;20468;-72
2023/05/09 00:43:48;;;;;;;25.90;24.20;;;16.40;54.70;;;;;;5063307;28;20218;-71
2023/05/09 00:46:13;;;;;;;24.40;22.70;;;16.40;54.50;;;;;;5069417;28;20213;-74
2023/05/09 00:48:39;;;;;;;26.50;24.77;;;16.30;52.50;;;;;;5065419;28;20171;-72
2023/05/09 00:51:05;;;;;;;26.87;25.03;;;16.30;52.70;;;;;;5065107;28;21363;-72
2023/05/09 00:53:31;;;;;;;26.30;24.60;;;16.30;52.80;;;;;;5065295;28;20274;-73
2023/05/09 00:55:58;;;;;;;26.60;24.60;;;16.20;52.40;;;;;;5064536;28;20516;-72
2023/05/09 00:58:25;;;;;;;25.77;24.07;;;16.20;52.60;;;;;;5066054;28;20235;-70
2023/05/09 01:00:50;;;;;;;24.93;23.30;;;16.30;53.00;;;;;;5066188;28;20457;-71
2023/05/09 01:03:16;;;;;;;25.10;23.50;;;16.30;53.10;;;;;;5047624;28;20461;-72
2023/05/09 01:06:02;;;;;;;25.43;23.63;;;16.40;53.40;;;;;;5063940;28;20163;-72
2023/05/09 01:08:33;;;;;;;25.73;24.00;;;16.50;53.50;;;;;;5065471;28;20417;-72
2023/05/09 01:11:29;;;;;;;25.53;23.93;;;16.50;53.10;;;;;;5065495;28;20470;-75
2023/05/09 01:14:14;;;;;;;27.37;25.57;;;16.50;53.10;;;;;;5056465;28;20437;-72
2023/05/09 01:17:07;;;;;;;28.23;26.23;;;16.50;51.80;;;;;;5065358;28;20896;-71
2023/05/09 01:19:55;;;;;;;27.23;25.33;;;16.50;52.10;;;;;;5062946;28;20433;-72
2023/05/09 01:22:27;;;;;;;27.63;25.63;;;16.50;52.50;;;;;;5063424;28;20491;-72
2023/05/09 01:25:10;;;;;;;28.57;26.43;;;16.50;52.50;;;;;;5063237;28;20413;-70
2023/05/09 01:27:47;;;;;;;28.97;26.67;;;16.50;52.20;;;;;;5062724;28;20398;-70
2023/05/09 01:30:15;;;;;;;29.43;27.13;;;16.60;51.80;;;;;;5064973;28;20497;-72
2023/05/09 01:32:45;;;;;;;28.27;26.47;;;16.60;51.80;;;;;;5063922;28;20491;-72
2023/05/09 01:35:13;;;;;;;30.60;28.30;;;16.60;51.50;;;;;;5063452;28;20405;-72
2023/05/09 01:37:41;;;;;;;28.87;26.80;;;16.40;50.00;;;;;;5064077;28;20414;-72
2023/05/09 01:40:12;;;;;;;28.77;26.87;;;16.40;50.30;;;;;;5064558;28;20406;-73
2023/05/09 01:42:56;;;;;;;29.53;27.43;;;16.40;50.20;;;;;;5046246;28;20466;-72
2023/05/09 01:45:23;;;;;;;29.57;27.40;;;16.30;50.60;;;;;;5047573;28;20443;-72
2023/05/09 01:47:49;;;;;;;29.30;27.40;;;16.40;51.50;;;;;;5064738;28;20401;-71
2023/05/09 01:50:17;;;;;;;29.13;27.03;;;16.40;51.70;;;;;;5062543;28;20412;-71
2023/05/09 01:52:47;;;;;;;27.30;25.50;;;16.40;50.90;;;;;;5045112;28;20787;-72
2023/05/09 01:55:15;;;;;;;28.17;26.37;;;16.40;51.60;;;;;;5060843;28;20571;-72
2023/05/09 01:57:42;;;;;;;29.07;27.07;;;16.40;51.90;;;;;;5064047;28;20566;-73
2023/05/09 02:00:09;;;;;;;31.40;29.17;;;16.50;51.40;;;;;;5062182;28;20398;-72
2023/05/09 02:02:36;;;;;;;29.43;27.53;;;16.50;51.30;;;;;;5064486;28;20472;-71
2023/05/09 02:05:02;;;;;;;30.43;28.33;;;16.50;51.10;;;;;;5047144;28;20413;-71
2023/05/09 02:07:28;;;;;;;31.00;28.60;;;16.50;50.90;;;;;;5061905;28;20412;-71
2023/05/09 02:09:55;;;;;;;29.33;27.37;;;16.50;51.00;;;;;;5062777;28;20163;-72
2023/05/09 02:12:25;;;;;;;29.13;27.03;;;16.50;51.10;;;;;;5063302;28;20969;-73
2023/05/09 02:14:51;;;;;;;29.37;27.27;;;16.40;50.80;;;;;;5062549;28;20463;-71
2023/05/09 02:17:16;;;;;;;29.20;27.03;;;16.40;51.40;;;;;;5061103;28;20413;-72
2023/05/09 02:19:42;;;;;;;29.47;27.53;;;16.40;51.50;;;;;;5063932;28;20171;-73
2023/05/09 02:22:09;;;;;;;29.47;27.37;;;16.50;51.70;;;;;;5064988;28;20211;-70
2023/05/09 02:24:35;;;;;;;29.43;27.53;;;16.50;51.70;;;;;;5062921;28;20961;-72
2023/05/09 02:27:03;;;;;;;28.70;26.83;;;16.50;51.80;;;;;;5061832;28;20413;-71
2023/05/09 02:29:39;;;;;;;30.40;28.37;;;16.50;51.40;;;;;;5063217;28;20174;-71
2023/05/09 02:32:12;;;;;;;30.37;28.37;;;16.40;51.30;;;;;;5063109;28;20408;-72
2023/05/09 02:34:39;;;;;;;29.20;27.37;;;16.40;51.30;;;;;;5062518;28;20441;-72
2023/05/09 02:37:06;;;;;;;28.60;26.73;;;16.40;51.10;;;;;;5064975;28;20409;-71
2023/05/09 02:39:32;;;;;;;28.73;26.90;;;16.40;52.00;;;;;;5042631;28;20512;-73
2023/05/09 02:42:08;;;;;;;30.40;28.30;;;16.40;51.90;;;;;;5062817;28;20532;-72
2023/05/09 02:44:33;;;;;;;27.70;25.90;;;16.40;51.90;;;;;;5062830;28;20630;-71
2023/05/09 02:47:00;;;;;;;30.20;28.07;;;16.40;52.00;;;;;;5062167;28;20412;-72
2023/05/09 02:49:26;;;;;;;28.07;25.90;;;16.50;52.10;;;;;;5065760;28;20171;-71
2023/05/09 02:51:51;;;;;;;28.63;26.73;;;16.40;51.30;;;;;;5047343;28;20421;-73
2023/05/09 02:54:17;;;;;;;30.70;28.13;;;16.30;51.40;;;;;;5065741;28;20176;-71
2023/05/09 02:56:42;;;;;;;29.73;27.63;;;16.20;51.30;;;;;;5066752;28;20174;-72
2023/05/09 02:59:08;;;;;;;28.80;26.87;;;16.20;51.30;;;;;;5066202;28;20186;-71
2023/05/09 03:01:33;;;;;;;29.37;27.40;;;16.20;51.30;;;;;;5066460;28;20258;-72
2023/05/09 03:03:59;;;;;;;30.27;28.20;;;16.10;51.10;;;;;;5065334;28;20219;-71
2023/05/09 03:06:24;;;;;;;32.73;30.57;;;16.00;51.40;;;;;;5048504;28;20214;-71
2023/05/09 03:08:50;;;;;;;33.57;31.00;;;16.00;52.00;;;;;;5066010;28;20824;-70
2023/05/09 03:11:15;;;;;;;29.73;27.83;;;16.00;52.00;;;;;;5065968;28;20194;-71
2023/05/09 03:13:41;;;;;;;30.63;28.17;;;16.00;52.10;;;;;;5067079;28;20572;-72
2023/05/09 03:16:06;;;;;;;29.70;27.70;;;16.00;51.80;;;;;;5069202;28;20182;-71
2023/05/09 03:18:32;;;;;;;30.60;28.60;;;15.90;51.90;;;;;;5065422;28;20218;-71
2023/05/09 03:20:57;;;;;;;31.40;29.30;;;15.80;52.90;;;;;;5065633;28;20206;-71
2023/05/09 03:23:23;;;;;;;30.33;28.13;;;15.90;52.80;;;;;;5064847;28;20199;-71
2023/05/09 03:25:48;;;;;;;31.87;29.37;;;15.90;52.40;;;;;;5063407;28;20171;-73
2023/05/09 03:28:14;;;;;;;31.87;29.67;;;15.90;52.00;;;;;;5065751;28;20197;-71
2023/05/09 03:30:39;;;;;;;32.47;30.27;;;15.90;52.20;;;;;;5066055;28;20262;-72
2023/05/09 03:33:05;;;;;;;31.70;29.53;;;15.80;52.10;;;;;;5066210;28;20552;-71
2023/05/09 03:35:31;;;;;;;31.20;29.10;;;15.80;52.40;;;;;;5065014;28;20171;-71
2023/05/09 03:37:57;;;;;;;31.30;29.03;;;15.80;52.80;;;;;;5066137;28;21526;-70
2023/05/09 03:40:22;;;;;;;31.23;29.17;;;15.70;52.90;;;;;;5063914;28;20195;-71
2023/05/09 03:42:47;;;;;;;30.73;28.10;;;15.70;53.20;;;;;;5066027;28;20191;-71
2023/05/09 03:45:13;;;;;;;31.47;29.37;;;15.70;53.20;;;;;;5065769;28;20167;-70
2023/05/09 03:47:39;;;;;;;31.30;28.90;;;15.70;53.30;;;;;;5064662;28;20570;-72
2023/05/09 03:50:05;;;;;;;31.60;29.40;;;15.70;53.10;;;;;;5045868;28;20171;-71
2023/05/09 03:52:31;;;;;;;31.77;29.57;;;15.50;53.60;;;;;;5064247;28;20198;-71
2023/05/09 03:54:56;;;;;;;31.83;29.43;;;15.50;53.90;;;;;;5062911;28;20406;-72
2023/05/09 03:57:22;;;;;;;30.90;28.70;;;15.50;53.70;;;;;;5065129;28;20203;-72
2023/05/09 03:59:47;;;;;;;30.63;28.43;;;15.60;54.30;;;;;;5065659;28;20197;-71
2023/05/09 04:02:13;;;;;;;30.60;28.30;;;15.70;54.00;;;;;;5064508;28;20221;-71
2023/05/09 04:04:38;;;;;;;31.87;29.63;;;15.80;53.70;;;;;;5066542;28;20179;-70
2023/05/09 04:07:04;;;;;;;31.17;28.97;;;15.90;53.20;;;;;;5065388;28;20182;-71
2023/05/09 04:09:29;;;;;;;28.40;26.50;;;16.00;53.80;;;;;;5066365;28;20198;-71
2023/05/09 04:11:55;;;;;;;31.90;29.70;;;16.00;52.80;;;;;;5067530;28;20234;-71
2023/05/09 04:14:20;;;;;;;31.60;29.30;;;16.10;52.80;;;;;;5068174;28;20540;-71
2023/05/09 04:16:46;;;;;;;30.13;28.00;;;15.90;51.40;;;;;;5069631;28;20172;-72
2023/05/09 04:19:11;;;;;;;30.90;28.90;;;15.70;51.70;;;;;;5069700;28;20183;-72
2023/05/09 04:21:37;;;;;;;30.07;28.07;;;15.60;52.20;;;;;;5068050;28;20736;-72
2023/05/09 04:24:02;;;;;;;29.93;27.80;;;15.50;52.40;;;;;;5069370;28;20195;-71
2023/05/09 04:26:30;;;;;;;31.40;29.13;;;15.40;53.10;;;;;;5072013;28;20225;-71
2023/05/09 04:28:55;;;;;;;31.00;29.00;;;15.50;53.40;;;;;;5070244;28;20168;-71
2023/05/09 04:31:21;;;;;;;29.80;27.70;;;15.40;53.40;;;;;;5072335;28;20922;-71
2023/05/09 04:33:47;;;;;;;30.33;28.03;;;15.50;53.00;;;;;;5073270;28;20183;-70
2023/05/09 04:36:13;;;;;;;30.57;28.47;;;15.40;53.10;;;;;;5074715;28;20410;-70
2023/05/09 04:38:38;;;;;;;30.53;28.03;;;15.50;53.40;;;;;;5074386;28;20254;-71
2023/05/09 04:41:04;;;;;;;29.40;27.37;;;15.50;53.30;;;;;;5072080;28;20198;-74
2023/05/09 04:43:31;;;;;;;30.07;27.80;;;15.50;54.00;;;;;;5071167;28;20223;-72
2023/05/09 04:45:56;;;;;;;28.77;26.93;;;15.60;53.50;;;;;;5074118;28;20747;-71
2023/05/09 04:48:22;;;;;;;28.27;26.43;;;15.70;53.00;;;;;;5073110;28;20409;-71
2023/05/09 04:50:48;;;;;;;29.80;27.60;;;15.70;52.50;;;;;;5071736;28;20175;-72
2023/05/09 04:53:14;;;;;;;27.50;25.70;;;15.70;52.30;;;;;;5073704;28;20224;-72
2023/05/09 04:55:40;;;;;;;26.97;25.10;;;15.70;51.60;;;;;;5071615;28;20304;-72
2023/05/09 04:58:06;;;;;;;27.57;25.60;;;15.70;51.70;;;;;;5072408;28;20550;-71
2023/05/09 05:00:31;;;;;;;29.57;27.47;;;15.70;51.90;;;;;;5073453;28;20791;-71
2023/05/09 05:02:57;;;;;;;27.83;26.03;;;15.60;51.90;;;;;;5072424;28;20226;-70
2023/05/09 05:05:22;;;;;;;27.37;25.47;;;15.70;52.10;;;;;;5073014;28;20182;-70
2023/05/09 05:07:48;;;;;;;27.77;25.77;;;15.60;52.40;;;;;;5073404;28;20668;-71
2023/05/09 05:10:13;;;;;;;27.87;25.97;;;15.60;52.30;;;;;;5072208;28;20168;-70
2023/05/09 05:12:39;;;;;;;26.50;24.60;;;15.60;52.20;;;;;;5072201;28;20265;-72
2023/05/09 05:15:05;;;;;;;26.50;24.70;;;15.70;51.80;;;;;;5069856;28;20225;-70
2023/05/09 05:17:30;;;;;;;29.97;27.57;;;15.70;51.50;;;;;;5052512;28;20175;-71
2023/05/09 05:19:56;;;;;;;27.40;25.57;;;15.60;51.40;;;;;;5073269;28;20596;-71
2023/05/09 05:22:21;;;;;;;26.73;24.93;;;15.60;51.50;;;;;;5071547;28;20238;-73
2023/05/09 05:24:47;;;;;;;28.47;26.40;;;15.70;51.50;;;;;;5072178;28;20167;-72
2023/05/09 05:27:13;;;;;;;29.53;27.50;;;15.70;51.60;;;;;;5073440;28;20175;-71
2023/05/09 05:29:38;;;;;;;26.47;24.67;;;15.70;51.70;;;;;;5073536;28;20615;-71
2023/05/09 05:32:04;;;;;;;28.47;26.47;;;15.70;51.70;;;;;;5071272;28;20184;-71
2023/05/09 05:34:30;;;;;;;29.10;27.20;;;15.80;51.00;;;;;;5073845;28;20653;-72
2023/05/09 05:36:55;;;;;;;26.80;25.00;;;15.70;51.10;;;;;;5072996;28;20167;-72
2023/05/09 05:39:21;;;;;;;26.40;24.70;;;15.70;50.80;;;;;;5072967;28;20760;-71
2023/05/09 05:41:46;;;;;;;31.87;29.57;;;15.70;51.40;;;;;;5070931;28;20613;-72
2023/05/09 05:44:12;;;;;;;29.50;27.40;;;15.90;51.80;;;;;;5073287;28;20241;-72
2023/05/09 05:46:37;;;;;;;32.33;30.00;;;15.90;51.60;;;;;;5072835;28;20179;-71
2023/05/09 05:49:03;;;;;;;33.00;30.70;;;16.00;51.00;;;;;;5072759;28;20175;-71
2023/05/09 05:51:28;;;;;;;34.10;31.57;;;15.90;50.20;;;;;;5070204;28;21105;-72
2023/05/09 05:53:54;;;;;;;30.73;28.53;;;16.00;50.80;;;;;;5072412;28;20207;-72
2023/05/09 05:56:21;;;;;;;29.03;27.07;;;16.10;51.30;;;;;;5068255;28;20179;-72
2023/05/09 05:58:47;;;;;;;33.47;30.77;;;16.20;50.90;;;;;;5074886;28;20182;-72
2023/05/09 06:01:12;;;;;;;29.60;27.60;;;16.30;50.50;;;;;;5092433;28;20460;-73
2023/05/09 06:03:38;;;;;;;30.33;28.30;;;16.20;49.20;;;;;;5091323;28;20197;-72
2023/05/09 06:06:04;;;;;;;28.37;26.17;;;16.10;48.60;;;;;;5074341;28;20212;-71
2023/05/09 06:08:30;;;;;;;29.97;27.90;;;16.00;48.60;;;;;;5088881;28;20190;-72
2023/05/09 06:10:55;;;;;;;30.40;28.30;;;16.00;48.20;;;;;;5072575;28;20669;-72
2023/05/09 06:13:21;;;;;;;31.43;29.13;;;15.90;48.70;;;;;;5068681;28;20441;-73
2023/05/09 06:15:46;;;;;;;31.57;29.10;;;15.90;48.20;;;;;;5070113;28;20202;-71
2023/05/09 06:18:12;;;;;;;31.43;29.00;;;15.90;48.70;;;;;;5070516;28;20289;-71
2023/05/09 06:20:37;;;;;;;30.33;28.33;;;15.90;48.70;;;;;;5069220;28;20203;-71
2023/05/09 06:23:03;;;;;;;30.63;28.50;;;15.90;48.70;;;;;;5052824;28;20199;-72
2023/05/09 06:25:28;;;;;;;32.63;30.27;;;15.80;48.70;;;;;;5077000;28;20173;-71
2023/05/09 06:27:54;;;;;;;31.10;28.90;;;15.80;48.80;;;;;;5080859;28;20167;-71
2023/05/09 06:30:19;;;;;;;32.60;30.30;;;15.80;48.60;;;;;;5079529;28;20175;-72
2023/05/09 06:32:45;;;;;;;33.10;30.70;;;15.80;48.30;;;;;;5076820;28;20198;-70
2023/05/09 06:35:10;;;;;;;32.60;30.27;;;15.80;48.50;;;;;;5076700;28;20243;-71
2023/05/09 06:37:36;;;;;;;30.93;28.43;;;15.90;48.30;;;;;;5077768;28;20163;-71
2023/05/09 06:40:02;;;;;;;30.97;28.80;;;15.90;47.50;;;;;;5076458;28;20198;-72
2023/05/09 06:42:28;;;;;;;32.07;29.77;;;15.90;47.60;;;;;;5077993;28;20215;-70
2023/05/09 06:44:54;;;;;;;32.47;29.87;;;15.90;48.60;;;;;;5078388;28;20572;-71
2023/05/09 06:47:20;;;;;;;31.43;29.10;;;16.00;48.50;;;;;;5078188;28;20496;-71
2023/05/09 06:49:45;;;;;;;34.37;31.37;;;16.00;48.00;;;;;;5076264;28;20231;-72
2023/05/09 06:52:11;;;;;;;32.60;30.30;;;16.00;48.20;;;;;;5077503;28;20195;-72
2023/05/09 06:54:37;;;;;;;34.17;31.30;;;16.00;48.80;;;;;;5075420;28;20167;-71
2023/05/09 06:57:03;;;;;;;32.90;30.50;;;15.90;48.80;;;;;;5075904;28;20409;-72
2023/05/09 06:59:29;;;;;;;31.97;29.67;;;16.00;48.90;;;;;;5077883;28;20805;-72
2023/05/09 07:01:54;;;;;;;32.30;29.80;;;16.00;48.50;;;;;;5058785;28;20215;-72
2023/05/09 07:04:20;;;;;;;31.73;29.43;;;16.10;48.40;;;;;;5072179;28;20179;-71
2023/05/09 07:06:45;;;;;;;30.37;27.97;;;16.10;47.70;;;;;;5055222;28;20206;-71
2023/05/09 07:09:13;;;;;;;32.20;29.90;;;16.20;47.10;;;;;;5075588;28;20167;-71
2023/05/09 07:11:39;;;;;;;34.23;31.73;;;16.20;47.80;;;;;;5073611;28;20257;-71
2023/05/09 07:14:04;;;;;;;30.70;28.30;;;16.20;47.10;;;;;;5077666;28;20518;-71
2023/05/09 07:16:33;;;;;;;32.43;30.13;;;16.20;47.10;;;;;;5076344;28;20203;-70
2023/05/09 07:18:59;;;;;;;31.73;29.27;;;16.30;45.90;;;;;;5078006;28;20255;-71
2023/05/09 07:21:24;;;;;;;32.97;30.57;;;16.30;45.10;;;;;;5077406;28;20464;-72
2023/05/09 07:23:50;;;;;;;32.67;30.37;;;16.40;45.20;;;;;;5076098;28;20199;-70
2023/05/09 07:26:15;;;;;;;32.27;29.97;;;16.50;44.80;;;;;;5076715;28;20195;-71
2023/05/09 07:28:41;;;;;;;32.07;29.30;;;16.60;42.20;;;;;;5075574;28;20171;-71
2023/05/09 07:31:08;;;;;;;31.30;29.10;;;16.70;40.20;;;;;;5075145;28;20319;-71
2023/05/09 07:33:33;;;;;;;30.43;28.13;;;16.80;40.40;;;;;;5076574;28;20191;-72
2023/05/09 07:35:59;;;;;;;30.30;28.10;;;17.00;39.30;;;;;;5075887;28;20760;-71
2023/05/09 07:38:25;;;;;;;31.30;29.00;;;17.10;38.30;;;;;;5073437;28;20175;-71
2023/05/09 07:40:52;;;;;;;29.67;27.60;;;17.10;37.70;;;;;;5072040;28;20600;-71
2023/05/09 07:43:17;;;;;;;27.93;26.03;;;17.20;37.80;;;;;;5073409;28;20429;-70
2023/05/09 07:45:43;;;;;;;27.47;25.57;;;17.10;37.70;;;;;;5073520;28;20540;-71
2023/05/09 07:48:08;;;;;;;29.40;27.33;;;17.20;37.90;;;;;;5074590;28;20167;-71
2023/05/09 07:50:34;;;;;;;26.00;24.30;;;17.30;38.00;;;;;;5056477;28;20175;-71
2023/05/09 07:53:00;;;;;;;26.90;25.10;;;17.40;37.60;;;;;;5074290;28;20207;-70
2023/05/09 07:55:25;;;;;;;27.57;25.30;;;17.40;38.00;;;;;;5073513;28;20175;-71
2023/05/09 07:57:51;;;;;;;25.93;24.20;;;17.50;38.10;;;;;;5054636;28;20181;-71
2023/05/09 08:00:18;;;;;;;25.63;24.13;;;17.60;38.00;;;;;;5056080;28;20178;-71
2023/05/09 08:02:43;;;;;;;25.67;23.77;;;17.60;37.50;;;;;;5073649;28;20203;-71
2023/05/09 08:05:10;;;;;;;23.70;22.20;;;17.70;38.00;;;;;;5073152;28;20926;-70
2023/05/09 08:07:36;;;;;;;24.87;23.17;;;17.80;38.30;;;;;;5074296;28;20173;-71
2023/05/09 08:10:01;;;;;;;24.00;22.50;;;17.80;38.40;;;;;;5072431;28;20497;-71
2023/05/09 08:12:27;;;;;;;24.30;22.43;;;17.90;37.40;;;;;;5054354;28;20215;-71
2023/05/09 08:14:52;;;;;;;21.93;20.40;;;17.90;37.60;;;;;;5055171;28;20267;-71
2023/05/09 08:17:18;;;;;;;22.77;21.30;;;18.00;36.40;;;;;;5073678;28;20178;-71
2023/05/09 08:19:43;;;;;;;22.50;21.20;;;18.00;36.70;;;;;;5072247;28;20183;-72
2023/05/09 08:22:16;;;;;;;23.13;21.83;;;18.10;36.50;;;;;;5072166;28;20211;-72
2023/05/09 08:24:41;;;;;;;23.90;22.37;;;18.10;37.50;;;;;;5073945;28;20579;-72
2023/05/09 08:27:07;;;;;;;24.47;22.80;;;18.20;37.40;;;;;;5072068;28;20398;-71
2023/05/09 08:29:32;;;;;;;22.83;21.43;;;18.20;38.00;;;;;;5072677;28;20256;-70
2023/05/09 08:31:58;;;;;;;22.60;21.20;;;18.30;36.30;;;;;;5072967;28;20309;-71
2023/05/09 08:34:23;;;;;;;18.57;17.20;;;18.30;35.90;;;;;;5072724;28;20202;-71
2023/05/09 08:36:49;;;;;;;22.73;21.33;;;18.40;36.60;;;;;;5072617;28;20182;-70
2023/05/09 08:39:14;;;;;;;22.00;20.70;;;18.30;35.70;;;;;;5054685;28;20228;-70
2023/05/09 08:41:41;;;;;;;22.30;20.90;;;18.40;36.50;;;;;;5071212;28;20630;-72
2023/05/09 08:44:08;;;;;;;22.83;21.10;;;18.60;34.90;;;;;;5073351;28;20185;-72
2023/05/09 08:46:38;;;;;;;22.13;20.60;;;18.60;34.40;;;;;;5073284;28;20413;-72
2023/05/09 08:49:06;;;;;;;20.13;18.80;;;18.80;34.30;;;;;;5071614;28;20815;-72
2023/05/09 08:51:32;;;;;;;21.17;19.77;;;18.80;33.80;;;;;;5053990;28;20856;-72
2023/05/09 08:53:58;;;;;;;19.47;18.13;;;18.80;33.80;;;;;;5073186;28;20476;-71
2023/05/09 08:56:23;;;;;;;17.70;16.47;;;18.90;33.80;;;;;;5073818;28;20420;-71
2023/05/09 08:58:49;;;;;;;18.77;17.37;;;18.90;34.00;;;;;;5072787;28;20413;-71
2023/05/09 09:01:16;;;;;;;19.00;17.60;;;18.90;34.00;;;;;;5071513;28;20277;-71
2023/05/09 09:03:46;;;;;;;18.77;17.53;;;18.90;34.20;;;;;;5072957;28;21005;-71
2023/05/09 09:06:13;;;;;;;19.97;18.37;;;19.00;34.50;;;;;;5073099;28;20765;-72
2023/05/09 09:08:39;;;;;;;19.27;17.97;;;19.00;33.50;;;;;;5072432;28;20406;-72
2023/05/09 09:11:05;;;;;;;20.30;18.90;;;19.00;34.10;;;;;;5072588;28;20977;-71
2023/05/09 09:13:36;;;;;;;21.00;19.33;;;19.10;34.10;;;;;;5072486;28;20429;-72
2023/05/09 09:16:02;;;;;;;19.50;18.00;;;19.20;33.60;;;;;;5072079;28;20417;-71
2023/05/09 09:18:29;;;;;;;17.90;16.60;;;19.20;33.10;;;;;;5072949;28;20410;-71
2023/05/09 09:21:08;;;;;;;18.17;16.90;;;19.20;31.80;;;;;;5072831;28;20959;-71
2023/05/09 09:23:36;;;;;;;18.40;17.20;;;19.30;31.70;;;;;;5071838;28;20448;-72
2023/05/09 09:26:05;;;;;;;19.10;17.70;;;19.40;31.90;;;;;;5072480;28;20414;-72
2023/05/09 09:28:31;;;;;;;24.23;22.37;;;19.50;31.90;;;;;;5071709;28;20895;-73
2023/05/09 09:30:57;;;;;;;21.23;19.60;;;19.60;32.80;;;;;;5072742;28;20673;-71
2023/05/09 09:33:24;;;;;;;19.33;18.00;;;19.50;33.10;;;;;;5071754;28;20439;-72
2023/05/09 09:35:51;;;;;;;20.20;18.70;;;19.50;31.80;;;;;;5072659;28;20179;-72
2023/05/09 09:38:18;;;;;;;18.80;17.33;;;19.50;32.00;;;;;;5073025;28;20463;-73
2023/05/09 09:40:54;;;;;;;19.50;18.17;;;19.50;32.00;;;;;;5055733;28;21045;-72
2023/05/09 09:43:26;;;;;;;20.33;18.93;;;19.50;31.80;;;;;;5072783;28;20508;-73
2023/05/09 09:45:52;;;;;;;19.33;18.00;;;19.50;32.10;;;;;;5072649;28;20416;-73
2023/05/09 09:48:23;;;;;;;18.83;17.43;;;19.50;31.70;;;;;;5073846;28;20410;-72
2023/05/09 09:50:48;;;;;;;18.87;17.37;;;19.40;31.40;;;;;;5073819;28;20409;-71
2023/05/09 09:53:15;;;;;;;17.20;16.10;;;19.40;32.00;;;;;;5055718;28;20473;-74
2023/05/09 09:55:49;;;;;;;17.07;16.10;;;19.40;31.40;;;;;;5074441;28;20221;-71
2023/05/09 09:58:16;;;;;;;15.40;14.60;;;19.50;32.60;;;;;;5073886;28;20413;-72
2023/05/09 10:00:41;;;;;;;17.60;16.33;;;19.50;30.40;;;;;;5073203;28;20437;-72
2023/05/09 10:03:14;;;;;;;16.27;15.17;;;19.60;30.20;;;;;;5054851;28;20459;-72
2023/05/09 10:05:40;;;;;;;16.23;15.23;;;19.60;30.40;;;;;;5073773;28;20168;-71
2023/05/09 10:08:08;;;;;;;18.63;16.60;;;19.80;29.80;;;;;;5055469;28;20492;-71
2023/05/09 10:10:35;;;;;;;16.30;15.00;;;19.80;29.80;;;;;;5072800;28;20207;-72
2023/05/09 10:13:03;;;;;;;17.20;15.80;;;19.90;29.70;;;;;;5054546;28;20434;-71
2023/05/09 10:15:33;;;;;;;17.30;16.10;;;19.80;29.60;;;;;;5055645;28;20417;-71
2023/05/09 10:18:03;;;;;;;16.50;15.30;;;19.80;29.80;;;;;;5055586;28;20409;-72
2023/05/09 10:20:29;;;;;;;18.60;17.27;;;19.80;30.10;;;;;;5073327;28;20744;-71
2023/05/09 10:22:57;;;;;;;18.73;17.03;;;19.90;30.90;;;;;;5064424;28;20454;-72
2023/05/09 10:25:51;;;;;;;18.37;17.17;;;19.90;30.60;;;;;;5034656;28;20418;-72
2023/05/09 10:28:25;;;;;;;18.50;17.20;;;19.80;31.00;;;;;;5055792;28;20418;-73
2023/05/09 10:31:03;;;;;;;18.37;17.17;;;19.80;30.90;;;;;;5054857;28;20410;-73
2023/05/09 10:33:48;;;;;;;18.27;17.07;;;19.90;31.40;;;;;;5036172;28;20445;-73
2023/05/09 10:36:19;;;;;;;19.20;17.60;;;20.00;30.00;;;;;;5053864;28;20501;-73
2023/05/09 10:38:46;;;;;;;17.20;16.10;;;20.10;30.00;;;;;;5052468;28;20421;-72
2023/05/09 10:41:12;;;;;;;17.17;16.07;;;20.30;30.80;;;;;;5050976;28;20450;-70
2023/05/09 10:43:38;;;;;;;17.17;15.87;;;20.50;30.30;;;;;;5052273;28;20995;-72
2023/05/09 10:46:05;;;;;;;17.10;16.00;;;20.50;29.60;;;;;;5052910;28;20425;-71
2023/05/09 10:48:35;;;;;;;18.57;17.27;;;20.60;29.60;;;;;;5051614;28;20782;-71
2023/05/09 10:51:02;;;;;;;17.77;16.47;;;20.70;28.70;;;;;;5052190;28;20433;-71
2023/05/09 10:53:45;;;;;;;107.77;77.53;;;20.80;28.60;;;;;;5052036;28;20495;-70
2023/05/09 10:56:25;;;;;;;22.33;20.33;;;20.90;27.80;;;;;;5052033;28;20407;-72
2023/05/09 10:58:50;;;;;;;16.30;15.10;;;21.00;28.10;;;;;;5052965;28;20409;-72
2023/05/09 11:01:33;;;;;;;17.63;16.33;;;20.90;28.00;;;;;;5034302;28;20860;-74
2023/05/09 11:04:00;;;;;;;16.43;15.23;;;20.80;28.10;;;;;;5055044;28;20677;-72
2023/05/09 11:06:40;;;;;;;17.47;16.03;;;20.90;28.50;;;;;;5072661;28;20401;-72
2023/05/09 11:09:32;;;;;;;17.97;16.10;;;21.00;27.40;;;;;;5072020;28;20397;-73
2023/05/09 11:12:04;;;;;;;16.73;15.63;;;20.90;26.40;;;;;;5072460;28;20397;-72
2023/05/09 11:14:38;;;;;;;15.87;14.77;;;20.90;27.80;;;;;;5075747;28;20732;-72
2023/05/09 11:17:06;;;;;;;16.73;15.63;;;21.00;27.40;;;;;;5074903;28;20745;-72
2023/05/09 11:19:45;;;;;;;18.27;16.67;;;21.10;27.50;;;;;;5076147;28;20417;-72
2023/05/09 11:22:28;;;;;;;16.97;15.87;;;21.10;27.40;;;;;;5056755;28;21051;-73
2023/05/09 11:25:03;;;;;;;14.77;13.83;;;21.10;26.60;;;;;;5075143;28;20424;-72
2023/05/09 11:27:42;;;;;;;16.13;15.03;;;21.10;25.40;;;;;;5075430;28;20413;-73
2023/05/09 11:30:09;;;;;;;15.37;14.47;;;21.10;25.90;;;;;;5075300;28;20941;-73
2023/05/09 11:32:54;;;;;;;15.63;14.57;;;21.10;26.70;;;;;;5074178;28;20437;-71
2023/05/09 11:35:21;;;;;;;14.13;13.20;;;21.10;26.80;;;;;;5074346;28;20421;-71
2023/05/09 11:37:59;;;;;;;14.10;13.30;;;21.10;26.60;;;;;;5075090;28;20470;-72
2023/05/09 11:40:25;;;;;;;12.97;12.20;;;21.10;26.40;;;;;;5074817;28;20428;-71
2023/05/09 11:42:53;;;;;;;11.53;11.00;;;21.10;25.90;;;;;;5074066;28;20442;-72
2023/05/09 11:45:19;;;;;;;12.90;11.90;;;21.20;24.70;;;;;;5056702;28;20785;-70
2023/05/09 11:47:49;;;;;;;12.70;11.90;;;21.10;24.50;;;;;;5075036;28;20414;-73
2023/05/09 11:50:16;;;;;;;13.40;12.77;;;21.10;25.20;;;;;;5074425;28;20908;-72
2023/05/09 11:52:42;;;;;;;13.80;12.80;;;21.00;25.50;;;;;;5073858;28;20441;-72
2023/05/09 11:55:13;;;;;;;12.60;11.90;;;21.10;24.70;;;;;;5073196;28;20417;-72
2023/05/09 11:57:44;;;;;;;11.47;10.97;;;21.10;25.00;;;;;;5074648;28;20653;-72
2023/05/09 12:00:10;;;;;;;11.53;11.03;;;21.20;24.50;;;;;;5056253;28;20414;-72
2023/05/09 12:02:37;;;;;;;12.20;11.60;;;21.20;24.50;;;;;;5073512;28;20978;-72
2023/05/09 12:05:13;;;;;;;12.17;11.37;;;21.20;24.30;;;;;;5074673;28;20405;-72
2023/05/09 12:07:41;;;;;;;12.03;11.53;;;21.30;24.10;;;;;;5074789;28;20434;-71
2023/05/09 12:10:12;;;;;;;10.93;10.43;;;21.40;23.70;;;;;;5074789;28;20398;-72
2023/05/09 12:12:51;;;;;;;10.30;9.90;;;21.40;22.70;;;;;;5074154;28;20425;-72
2023/05/09 12:15:18;;;;;;;11.10;10.63;;;21.40;22.10;;;;;;5056673;28;20453;-74
2023/05/09 12:17:45;;;;;;;11.43;10.97;;;21.40;22.70;;;;;;5074625;28;20459;-72
2023/05/09 12:20:11;;;;;;;11.80;11.20;;;21.40;22.60;;;;;;5074081;28;20405;-72
2023/05/09 12:22:36;;;;;;;11.40;10.90;;;21.30;22.60;;;;;;5054794;28;20465;-73
2023/05/09 12:25:08;;;;;;;10.73;10.33;;;21.30;23.30;;;;;;5073762;28;20410;-71
2023/05/09 12:27:35;;;;;;;11.50;10.90;;;21.30;22.60;;;;;;5055796;28;20180;-72
2023/05/09 12:30:00;;;;;;;11.00;10.50;;;21.30;22.90;;;;;;5073743;28;20944;-72